Redwood City, CA (94065)

4:49 AM PDT on March 30, 2017 (GMT -0700)
Redwood Shores | | Change Station

Elev 5 ft 37.53 °N, 122.25 °W | Updated 8 seconds ago

Light Rain
Light Rain
55.8 °F
Feels Like 55.8 °F
N
3.4
Wind Variable Wind from ENE
Gusts 4.9 mph

Today
High -- | Low -- °F
--% Chance of Precip.
Yesterday
High -- | Low -- °F
Precip. -- in
Pressure 30.12 in
Visibility 1.5 miles
Clouds Scattered Clouds 300 ft
Mostly Cloudy 900 ft
Overcast 1500 ft
Dew Point 55 °F
Humidity 96%
Rainfall 0.00 in
Snow Depth Not available.
6:56 AM 7:30 PM
Waxing Crescent, 8% visible
METAR KSQL 301135Z AUTO 31011KT 1 1/2SM -RA SCT003 BKN009 OVC015 13/13 A3012 RMK AO2
Pressure 30.12 in
Visibility 1.5 miles
Clouds Scattered Clouds 300 ft
Mostly Cloudy 900 ft
Overcast 1500 ft
Dew Point 55 °F
Humidity 96%
Rainfall 0.00 in
Snow Depth Not available.
6:56 AM 7:30 PM
Waxing Crescent, 8% visible
METAR KSQL 301135Z AUTO 31011KT 1 1/2SM -RA SCT003 BKN009 OVC015 13/13 A3012 RMK AO2

Get Severe Weather Alerts

Thanks for signing up!

Be on the lookout for a verification email in your inbox.

You'll start receiving the daily forecast at 8 AM.

×

10-Day Weather Forecast

Almanac

Astronomy

Mar. 30, 2017 Rise Set
Actual Time
Civil Twilight
Nautical Twilight
Astronomical Twilight
Moon
Length of Visible Light
Length of Day
Tomorrow will be .
, % of the Moon is Illuminated

Today's Extremes

State Highs State Lows

Community

WunderPhotos

Upload Photos

1,962,540 photos uploaded!

WunderBlog® & News

Nearby

Air Quality

  Air Quality AQ Index Pollutant
Not available.

Snow Depth

Station Depth Elevation

Earthquake Activity

City Distance Mag. Time & Date
Minimum magnitude displayed is 2.5.

Earthquake Activity

City Distance Mag. Time & Date
Minimum magnitude displayed is 2.5.

Coastal Water Temperatures

Place Temperature

Stations

Nearby Weather Stations

Station Location Temp. Windchill Dew Point Humidity Wind Precip. Elev Updated Type
                   

Watches & Warnings

There are currently no watches in effect.